FNLUFOOL

Guest
Details From FNLU - LUANDA 4 DE FEVEREIRO
To FOOL - Leon M Ba
Flight Number -
Tags decoded
Created
Modified
Stats Distance 604 nm / 1,119 km
Max Altitude 0 ft / 0 m
Waypoints 5
Social Downloads 2
Likes 0
Share VATSIM

Download

Looking for another format? Having issues loading an existing format? Contact us
Advertisement - Login to hide

Notes

Requested: FNLU EPLAT UR526 BUNDO MISVA FOOL Unmatched points: UR526

Route

FNLU EPLAT BUNDO MISVA FOOL

ID Type Via Altitude Latitude Longitude Leg Dist Tot Dist Heading (true) Name
O FNLU APT - 0 ft / 0 m -8.85838˚ 13.23118˚ - 0 nm - LUANDA 4 DE FEVEREIRO
EPLAT FIX - 0 ft / 0 m -7.60167˚ 12.73500˚ 81 nm 81 nm 339° / 339° -
BUNDO FIX - 0 ft / 0 m -1.84278˚ 10.35333˚ 374 nm 455 nm 337° / 338° -
MISVA FIX - 0 ft / 0 m -0.75889˚ 9.90944˚ 70 nm 525 nm 338° / 338° -
O FOOL APT - 0 ft / 0 m 0.45862˚ 9.41225˚ 78 nm 604 nm 338° / 338° Leon M Ba

Altitude Profile

Advertisement - Login to hide

Weather


0- 5 10 15 20 25 30 35+ Temperature / ° C

Clouds and Precipitation
Forecast for 2018-05-28 00:00 UTC. Updated 5 hours ago

Ground ~20,000 ft ~40,000 ft Winds

FNLU

Details ICAO FNLU (LAD)
Name LUANDA 4 DE FEVEREIRO
Region Angola
Timezone Africa/Luanda (UTC+1.0)
Stats Elevation 243 ft / 74 m (AMSL)
Location -8.858377° 13.231178°
Runways 2
Magnetic Variation 3.406° W

METAR

Not found

TAF

TAF FNLU 272300Z 2800/2906 VRB03KT 9999 FEW020 BECMG 2803/2806 8000 BKN020 BECMG 2807/2810 7000 OVC020 BECMG 2812/2814 27006KT 9999 BKN025 TEMPO 2815/2820 FEW020 BECMG 2900/2902 VRB03KT 8000 BKN023

Decode

Departure Runways

ID Width Length Bearing (true) Bearing (mag) Surface Threshold Offset Overrun Length
05 148 ft / 45 m 12,153 ft / 3,704 m 46.63° 50.04° Asphalt 0 ft / 0 m 0 ft / 0 m
07 197 ft / 60 m 8,176 ft / 2,492 m 67.40° 70.81° Asphalt 0 ft / 0 m 176 ft / 54 m
23 148 ft / 45 m 12,153 ft / 3,704 m 226.62° 230.03° Asphalt 500 ft / 152 m 0 ft / 0 m
25 197 ft / 60 m 8,176 ft / 2,492 m 247.40° 250.81° Asphalt 0 ft / 0 m 0 ft / 0 m

FOOL

Details ICAO FOOL (LBV)
Name Leon M Ba
Region Gabon
Timezone Africa/Libreville (UTC+1.0)
Stats Elevation 39 ft / 12 m (AMSL)
Location 0.458616° 9.412250°
Runways 1
Magnetic Variation 1.877° W

METAR

Not found

TAF

TAF FOOL 272300Z 2800/2906 22006KT 9999 SCT012 PROB40 TEMPO 2812/2821 3500 TSRA BKN008 FEW016CB OVC026

Decode

Destination Runways

ID Width Length Bearing (true) Bearing (mag) Surface Threshold Offset Overrun Length
16 148 ft / 45 m 9,889 ft / 3,014 m 154.19° 156.07° Asphalt 0 ft / 0 m 192 ft / 59 m
34 148 ft / 45 m 9,889 ft / 3,014 m 334.19° 336.07° Asphalt 0 ft / 0 m 209 ft / 64 m

Approach Navaids

Runway Type Ident Frequency Range Bearing (true) Bearing (mag) Slope Elevation
16 Localiser LB 109.50 MHz 18 nm / 33 km 155.78° 157.65° - 39 ft / 12 m (AMSL)
16 Glidescope LB 109.50 MHz 10 nm / 19 km 154.19° 156.07° 3.00° 54 ft / 16 m (AMSL)
16 DME LB 109.50 MHz 18 nm / 33 km - - - 39 ft / 12 m (AMSL)

Popular Alternatives